sensor_id;sensor_type;location;lat;lon;timestamp;temperature;humidity
1994;DHT22;998;49.906;10.908;2023-05-27T00:01:29;16.60;91.50
1994;DHT22;998;49.906;10.908;2023-05-27T00:03:56;16.50;91.70
1994;DHT22;998;49.906;10.908;2023-05-27T00:06:23;16.50;91.80
1994;DHT22;998;49.906;10.908;2023-05-27T00:08:51;16.40;91.80
1994;DHT22;998;49.906;10.908;2023-05-27T00:11:19;16.30;92.00
1994;DHT22;998;49.906;10.908;2023-05-27T00:13:47;16.30;92.00
1994;DHT22;998;49.906;10.908;2023-05-27T00:16:14;16.30;92.10
1994;DHT22;998;49.906;10.908;2023-05-27T00:18:42;16.20;92.10
1994;DHT22;998;49.906;10.908;2023-05-27T00:21:10;16.20;92.20
1994;DHT22;998;49.906;10.908;2023-05-27T00:23:37;16.20;92.20
1994;DHT22;998;49.906;10.908;2023-05-27T00:26:05;16.10;91.90
1994;DHT22;998;49.906;10.908;2023-05-27T00:28:33;16.10;91.90
1994;DHT22;998;49.906;10.908;2023-05-27T00:31:01;16.00;91.90
1994;DHT22;998;49.906;10.908;2023-05-27T00:33:28;16.00;92.10
1994;DHT22;998;49.906;10.908;2023-05-27T00:35:56;16.00;91.60
1994;DHT22;998;49.906;10.908;2023-05-27T00:38:23;16.00;91.60
1994;DHT22;998;49.906;10.908;2023-05-27T00:40:53;16.00;91.60
1994;DHT22;998;49.906;10.908;2023-05-27T00:43:20;15.90;91.60
1994;DHT22;998;49.906;10.908;2023-05-27T00:45:49;16.00;91.60
1994;DHT22;998;49.906;10.908;2023-05-27T00:48:16;15.90;91.50
1994;DHT22;998;49.906;10.908;2023-05-27T00:50:44;15.90;91.40
1994;DHT22;998;49.906;10.908;2023-05-27T00:53:11;15.80;91.60
1994;DHT22;998;49.906;10.908;2023-05-27T00:55:39;15.80;91.80
1994;DHT22;998;49.906;10.908;2023-05-27T00:58:07;15.80;91.60
1994;DHT22;998;49.906;10.908;2023-05-27T01:00:35;15.70;91.70
1994;DHT22;998;49.906;10.908;2023-05-27T01:03:05;15.70;91.80
1994;DHT22;998;49.906;10.908;2023-05-27T01:05:33;15.70;91.90
1994;DHT22;998;49.906;10.908;2023-05-27T01:08:09;15.70;92.00
1994;DHT22;998;49.906;10.908;2023-05-27T01:10:43;15.60;92.20
1994;DHT22;998;49.906;10.908;2023-05-27T01:13:16;15.60;92.20
1994;DHT22;998;49.906;10.908;2023-05-27T01:15:47;15.60;92.40
1994;DHT22;998;49.906;10.908;2023-05-27T01:18:18;15.50;92.40
1994;DHT22;998;49.906;10.908;2023-05-27T01:20:49;15.50;92.60
1994;DHT22;998;49.906;10.908;2023-05-27T01:23:19;15.40;92.70
1994;DHT22;998;49.906;10.908;2023-05-27T01:25:47;15.40;92.80
1994;DHT22;998;49.906;10.908;2023-05-27T01:28:17;15.40;92.80
1994;DHT22;998;49.906;10.908;2023-05-27T01:30:44;15.30;92.90
1994;DHT22;998;49.906;10.908;2023-05-27T01:33:17;15.30;92.90
1994;DHT22;998;49.906;10.908;2023-05-27T01:35:50;15.20;93.00
1994;DHT22;998;49.906;10.908;2023-05-27T01:38:21;15.20;93.00
1994;DHT22;998;49.906;10.908;2023-05-27T01:40:52;15.10;93.00
1994;DHT22;998;49.906;10.908;2023-05-27T01:43:20;15.10;93.30
1994;DHT22;998;49.906;10.908;2023-05-27T01:45:48;15.10;93.10
1994;DHT22;998;49.906;10.908;2023-05-27T01:48:16;15.10;93.20
1994;DHT22;998;49.906;10.908;2023-05-27T01:50:45;15.10;93.40
1994;DHT22;998;49.906;10.908;2023-05-27T01:53:12;15.10;93.30
1994;DHT22;998;49.906;10.908;2023-05-27T01:55:41;15.00;93.40
1994;DHT22;998;49.906;10.908;2023-05-27T01:58:08;14.90;93.60
1994;DHT22;998;49.906;10.908;2023-05-27T02:00:36;14.90;93.70
1994;DHT22;998;49.906;10.908;2023-05-27T02:03:03;14.90;93.50
1994;DHT22;998;49.906;10.908;2023-05-27T02:05:30;14.90;93.50
1994;DHT22;998;49.906;10.908;2023-05-27T02:07:57;14.90;93.50
1994;DHT22;998;49.906;10.908;2023-05-27T02:10:25;14.80;93.50
1994;DHT22;998;49.906;10.908;2023-05-27T02:12:53;14.90;93.60
1994;DHT22;998;49.906;10.908;2023-05-27T02:15:20;14.90;93.60
1994;DHT22;998;49.906;10.908;2023-05-27T02:17:49;14.80;93.70
1994;DHT22;998;49.906;10.908;2023-05-27T02:20:21;14.80;93.80
1994;DHT22;998;49.906;10.908;2023-05-27T02:22:49;14.70;94.10
1994;DHT22;998;49.906;10.908;2023-05-27T02:25:17;14.60;94.30
1994;DHT22;998;49.906;10.908;2023-05-27T02:27:44;14.50;94.50
1994;DHT22;998;49.906;10.908;2023-05-27T02:30:16;14.60;94.60
1994;DHT22;998;49.906;10.908;2023-05-27T02:32:43;14.50;94.60
1994;DHT22;998;49.906;10.908;2023-05-27T02:35:13;14.50;94.70
1994;DHT22;998;49.906;10.908;2023-05-27T02:37:40;14.50;95.20
1994;DHT22;998;49.906;10.908;2023-05-27T02:40:08;14.40;95.20
1994;DHT22;998;49.906;10.908;2023-05-27T02:42:36;14.40;95.20
1994;DHT22;998;49.906;10.908;2023-05-27T02:45:04;14.30;95.50
1994;DHT22;998;49.906;10.908;2023-05-27T02:47:34;14.30;95.40
1994;DHT22;998;49.906;10.908;2023-05-27T02:50:02;14.30;95.40
1994;DHT22;998;49.906;10.908;2023-05-27T02:52:30;14.30;95.50
1994;DHT22;998;49.906;10.908;2023-05-27T02:54:57;14.20;95.90
1994;DHT22;998;49.906;10.908;2023-05-27T02:57:24;14.20;95.80
1994;DHT22;998;49.906;10.908;2023-05-27T02:59:52;14.30;95.70
1994;DHT22;998;49.906;10.908;2023-05-27T03:02:19;14.20;95.80
1994;DHT22;998;49.906;10.908;2023-05-27T03:04:48;14.20;96.20
1994;DHT22;998;49.906;10.908;2023-05-27T03:07:15;14.20;96.50
1994;DHT22;998;49.906;10.908;2023-05-27T03:09:43;14.10;96.30
1994;DHT22;998;49.906;10.908;2023-05-27T03:12:10;14.10;96.30
1994;DHT22;998;49.906;10.908;2023-05-27T03:14:38;14.10;96.30
1994;DHT22;998;49.906;10.908;2023-05-27T03:17:05;14.10;96.60
1994;DHT22;998;49.906;10.908;2023-05-27T03:19:33;14.00;96.70
1994;DHT22;998;49.906;10.908;2023-05-27T03:22:02;14.10;96.80
1994;DHT22;998;49.906;10.908;2023-05-27T03:24:29;14.10;96.90
1994;DHT22;998;49.906;10.908;2023-05-27T03:26:57;14.10;96.80
1994;DHT22;998;49.906;10.908;2023-05-27T03:29:24;14.00;97.00
1994;DHT22;998;49.906;10.908;2023-05-27T03:31:51;14.10;97.20
1994;DHT22;998;49.906;10.908;2023-05-27T03:34:19;14.00;97.10
1994;DHT22;998;49.906;10.908;2023-05-27T03:36:46;14.00;97.20
1994;DHT22;998;49.906;10.908;2023-05-27T03:39:17;14.00;97.60
1994;DHT22;998;49.906;10.908;2023-05-27T03:41:44;14.00;97.50
1994;DHT22;998;49.906;10.908;2023-05-27T03:44:12;14.10;97.40
1994;DHT22;998;49.906;10.908;2023-05-27T03:46:39;14.10;97.60
1994;DHT22;998;49.906;10.908;2023-05-27T03:49:07;14.00;97.70
1994;DHT22;998;49.906;10.908;2023-05-27T03:51:34;13.90;97.90
1994;DHT22;998;49.906;10.908;2023-05-27T03:54:02;13.80;98.30
1994;DHT22;998;49.906;10.908;2023-05-27T03:56:31;13.80;98.30
1994;DHT22;998;49.906;10.908;2023-05-27T03:58:58;13.70;98.60
1994;DHT22;998;49.906;10.908;2023-05-27T04:01:26;13.70;98.70
1994;DHT22;998;49.906;10.908;2023-05-27T04:03:54;13.60;98.90
1994;DHT22;998;49.906;10.908;2023-05-27T04:06:21;13.70;98.90
1994;DHT22;998;49.906;10.908;2023-05-27T04:08:49;13.50;99.60
1994;DHT22;998;49.906;10.908;2023-05-27T04:11:16;13.50;99.50
1994;DHT22;998;49.906;10.908;2023-05-27T04:13:45;13.50;99.60
1994;DHT22;998;49.906;10.908;2023-05-27T04:16:14;13.50;99.70
1994;DHT22;998;49.906;10.908;2023-05-27T04:18:42;13.50;99.70
1994;DHT22;998;49.906;10.908;2023-05-27T04:21:14;13.50;99.90
1994;DHT22;998;49.906;10.908;2023-05-27T04:23:42;13.50;99.90
1994;DHT22;998;49.906;10.908;2023-05-27T04:26:09;13.40;99.90
1994;DHT22;998;49.906;10.908;2023-05-27T04:28:37;13.40;99.90
1994;DHT22;998;49.906;10.908;2023-05-27T04:31:08;13.40;99.90
1994;DHT22;998;49.906;10.908;2023-05-27T04:33:38;13.40;99.90
1994;DHT22;998;49.906;10.908;2023-05-27T04:36:07;13.40;99.90
1994;DHT22;998;49.906;10.908;2023-05-27T04:38:34;13.50;99.90
1994;DHT22;998;49.906;10.908;2023-05-27T04:41:02;13.50;99.90
1994;DHT22;998;49.906;10.908;2023-05-27T04:43:30;13.50;99.90
1994;DHT22;998;49.906;10.908;2023-05-27T04:45:59;13.60;99.90
1994;DHT22;998;49.906;10.908;2023-05-27T04:48:28;13.60;99.90
1994;DHT22;998;49.906;10.908;2023-05-27T04:50:55;13.60;99.90
1994;DHT22;998;49.906;10.908;2023-05-27T04:53:23;13.70;99.90
1994;DHT22;998;49.906;10.908;2023-05-27T04:55:51;13.80;99.90
1994;DHT22;998;49.906;10.908;2023-05-27T04:58:18;13.80;99.90
1994;DHT22;998;49.906;10.908;2023-05-27T05:00:46;13.90;99.90
1994;DHT22;998;49.906;10.908;2023-05-27T05:03:19;13.90;99.90
1994;DHT22;998;49.906;10.908;2023-05-27T05:05:51;13.90;99.90
1994;DHT22;998;49.906;10.908;2023-05-27T05:08:19;14.00;99.90
1994;DHT22;998;49.906;10.908;2023-05-27T05:10:47;14.00;99.90
1994;DHT22;998;49.906;10.908;2023-05-27T05:13:15;14.00;99.90
1994;DHT22;998;49.906;10.908;2023-05-27T05:15:42;14.00;99.90
1994;DHT22;998;49.906;10.908;2023-05-27T05:18:10;14.10;99.90
1994;DHT22;998;49.906;10.908;2023-05-27T05:20:38;14.10;99.90
1994;DHT22;998;49.906;10.908;2023-05-27T05:23:08;14.00;99.90
1994;DHT22;998;49.906;10.908;2023-05-27T05:25:35;14.10;99.90
1994;DHT22;998;49.906;10.908;2023-05-27T05:28:03;14.10;99.90
1994;DHT22;998;49.906;10.908;2023-05-27T05:30:31;14.10;99.90
1994;DHT22;998;49.906;10.908;2023-05-27T05:32:58;14.10;99.90
1994;DHT22;998;49.906;10.908;2023-05-27T05:35:26;14.10;99.90
1994;DHT22;998;49.906;10.908;2023-05-27T05:37:53;14.10;99.90
1994;DHT22;998;49.906;10.908;2023-05-27T05:40:23;14.10;99.90
1994;DHT22;998;49.906;10.908;2023-05-27T05:42:50;14.10;99.90
1994;DHT22;998;49.906;10.908;2023-05-27T05:45:17;14.20;99.90
1994;DHT22;998;49.906;10.908;2023-05-27T05:47:45;14.20;99.90
1994;DHT22;998;49.906;10.908;2023-05-27T05:50:12;14.30;99.90
1994;DHT22;998;49.906;10.908;2023-05-27T05:52:39;14.40;99.90
1994;DHT22;998;49.906;10.908;2023-05-27T05:55:07;14.40;99.90
1994;DHT22;998;49.906;10.908;2023-05-27T05:57:36;14.40;99.90
1994;DHT22;998;49.906;10.908;2023-05-27T06:00:04;14.40;99.90
1994;DHT22;998;49.906;10.908;2023-05-27T06:02:34;14.40;99.90
1994;DHT22;998;49.906;10.908;2023-05-27T06:05:01;14.40;99.90
1994;DHT22;998;49.906;10.908;2023-05-27T06:07:28;14.40;99.90
1994;DHT22;998;49.906;10.908;2023-05-27T06:09:56;14.40;99.90
1994;DHT22;998;49.906;10.908;2023-05-27T06:12:23;14.40;99.90
1994;DHT22;998;49.906;10.908;2023-05-27T06:14:52;14.50;99.90
1994;DHT22;998;49.906;10.908;2023-05-27T06:17:19;14.50;99.90
1994;DHT22;998;49.906;10.908;2023-05-27T06:19:48;14.50;99.90
1994;DHT22;998;49.906;10.908;2023-05-27T06:22:16;14.60;99.90
1994;DHT22;998;49.906;10.908;2023-05-27T06:24:43;14.60;99.90
1994;DHT22;998;49.906;10.908;2023-05-27T06:27:11;14.60;99.90
1994;DHT22;998;49.906;10.908;2023-05-27T06:29:38;14.70;99.90
1994;DHT22;998;49.906;10.908;2023-05-27T06:32:07;14.80;99.90
1994;DHT22;998;49.906;10.908;2023-05-27T06:34:34;14.70;99.90
1994;DHT22;998;49.906;10.908;2023-05-27T06:37:02;14.80;99.90
1994;DHT22;998;49.906;10.908;2023-05-27T06:39:29;14.70;99.90
1994;DHT22;998;49.906;10.908;2023-05-27T06:41:57;14.80;99.90
1994;DHT22;998;49.906;10.908;2023-05-27T06:44:24;14.80;99.90
1994;DHT22;998;49.906;10.908;2023-05-27T06:46:51;14.90;99.90
1994;DHT22;998;49.906;10.908;2023-05-27T06:49:20;14.90;99.90
1994;DHT22;998;49.906;10.908;2023-05-27T06:51:47;15.00;99.90
1994;DHT22;998;49.906;10.908;2023-05-27T06:54:15;15.00;99.90
1994;DHT22;998;49.906;10.908;2023-05-27T06:56:42;15.10;99.90
1994;DHT22;998;49.906;10.908;2023-05-27T06:59:10;15.20;99.90
1994;DHT22;998;49.906;10.908;2023-05-27T07:01:37;15.20;99.90
1994;DHT22;998;49.906;10.908;2023-05-27T07:04:04;15.30;99.90
1994;DHT22;998;49.906;10.908;2023-05-27T07:06:33;15.30;99.90
1994;DHT22;998;49.906;10.908;2023-05-27T07:09:03;15.40;99.90
1994;DHT22;998;49.906;10.908;2023-05-27T07:11:31;15.40;99.90
1994;DHT22;998;49.906;10.908;2023-05-27T07:13:59;15.50;99.90
1994;DHT22;998;49.906;10.908;2023-05-27T07:16:26;15.50;99.90
1994;DHT22;998;49.906;10.908;2023-05-27T07:18:53;15.50;99.90
1994;DHT22;998;49.906;10.908;2023-05-27T07:21:21;15.60;99.90
1994;DHT22;998;49.906;10.908;2023-05-27T07:23:50;15.60;99.90
1994;DHT22;998;49.906;10.908;2023-05-27T07:26:17;15.70;99.90
1994;DHT22;998;49.906;10.908;2023-05-27T07:28:46;15.70;99.90
1994;DHT22;998;49.906;10.908;2023-05-27T07:31:13;15.70;99.90
1994;DHT22;998;49.906;10.908;2023-05-27T07:33:40;15.70;99.90
1994;DHT22;998;49.906;10.908;2023-05-27T07:36:08;15.70;99.90
1994;DHT22;998;49.906;10.908;2023-05-27T07:38:35;15.80;99.90
1994;DHT22;998;49.906;10.908;2023-05-27T07:41:04;15.80;99.90
1994;DHT22;998;49.906;10.908;2023-05-27T07:43:31;15.90;99.90
1994;DHT22;998;49.906;10.908;2023-05-27T07:45:59;15.90;99.90
1994;DHT22;998;49.906;10.908;2023-05-27T07:48:27;16.00;99.90
1994;DHT22;998;49.906;10.908;2023-05-27T07:50:55;16.00;99.90
1994;DHT22;998;49.906;10.908;2023-05-27T07:53:23;16.00;99.90
1994;DHT22;998;49.906;10.908;2023-05-27T07:55:50;16.00;99.90
1994;DHT22;998;49.906;10.908;2023-05-27T07:58:19;16.00;99.90
1994;DHT22;998;49.906;10.908;2023-05-27T08:00:47;16.10;99.90
1994;DHT22;998;49.906;10.908;2023-05-27T08:03:14;16.20;99.60
1994;DHT22;998;49.906;10.908;2023-05-27T08:05:42;16.20;99.80
1994;DHT22;998;49.906;10.908;2023-05-27T08:08:09;16.40;99.40
1994;DHT22;998;49.906;10.908;2023-05-27T08:10:37;16.40;98.70
1994;DHT22;998;49.906;10.908;2023-05-27T08:13:05;16.40;98.10
1994;DHT22;998;49.906;10.908;2023-05-27T08:15:33;16.40;98.00
1994;DHT22;998;49.906;10.908;2023-05-27T08:18:01;16.40;98.50
1994;DHT22;998;49.906;10.908;2023-05-27T08:20:28;16.50;98.20
1994;DHT22;998;49.906;10.908;2023-05-27T08:22:55;16.60;97.20
1994;DHT22;998;49.906;10.908;2023-05-27T08:25:22;16.70;96.50
1994;DHT22;998;49.906;10.908;2023-05-27T08:27:51;16.80;96.00
1994;DHT22;998;49.906;10.908;2023-05-27T08:30:19;16.80;96.00
1994;DHT22;998;49.906;10.908;2023-05-27T08:32:48;16.80;96.40
1994;DHT22;998;49.906;10.908;2023-05-27T08:35:15;16.80;96.50
1994;DHT22;998;49.906;10.908;2023-05-27T08:37:44;16.90;97.00
1994;DHT22;998;49.906;10.908;2023-05-27T08:40:13;17.00;96.60
1994;DHT22;998;49.906;10.908;2023-05-27T08:42:42;17.00;95.80
1994;DHT22;998;49.906;10.908;2023-05-27T08:45:10;17.00;95.50
1994;DHT22;998;49.906;10.908;2023-05-27T08:47:38;17.00;95.90
1994;DHT22;998;49.906;10.908;2023-05-27T08:50:08;17.00;95.90
1994;DHT22;998;49.906;10.908;2023-05-27T08:52:45;17.10;96.10
1994;DHT22;998;49.906;10.908;2023-05-27T08:55:15;17.20;97.60
1994;DHT22;998;49.906;10.908;2023-05-27T08:57:45;17.30;96.10
1994;DHT22;998;49.906;10.908;2023-05-27T09:00:14;17.30;95.50
1994;DHT22;998;49.906;10.908;2023-05-27T09:02:41;17.40;96.80
1994;DHT22;998;49.906;10.908;2023-05-27T09:05:11;17.40;95.70
1994;DHT22;998;49.906;10.908;2023-05-27T09:07:39;17.40;95.30
1994;DHT22;998;49.906;10.908;2023-05-27T09:10:07;17.50;95.80
1994;DHT22;998;49.906;10.908;2023-05-27T09:12:35;17.60;96.20
1994;DHT22;998;49.906;10.908;2023-05-27T09:15:03;17.60;96.50
1994;DHT22;998;49.906;10.908;2023-05-27T09:17:31;17.70;96.00
1994;DHT22;998;49.906;10.908;2023-05-27T09:19:58;17.60;96.10
1994;DHT22;998;49.906;10.908;2023-05-27T09:22:29;17.60;95.50
1994;DHT22;998;49.906;10.908;2023-05-27T09:24:57;17.60;95.80
1994;DHT22;998;49.906;10.908;2023-05-27T09:27:25;17.60;95.50
1994;DHT22;998;49.906;10.908;2023-05-27T09:29:52;17.60;95.90
1994;DHT22;998;49.906;10.908;2023-05-27T09:32:26;17.70;95.00
1994;DHT22;998;49.906;10.908;2023-05-27T09:34:54;17.70;95.10
1994;DHT22;998;49.906;10.908;2023-05-27T09:37:25;17.80;96.00
1994;DHT22;998;49.906;10.908;2023-05-27T09:39:59;17.90;95.30
1994;DHT22;998;49.906;10.908;2023-05-27T09:42:39;18.00;95.30
1994;DHT22;998;49.906;10.908;2023-05-27T09:45:08;18.10;94.90
1994;DHT22;998;49.906;10.908;2023-05-27T09:47:40;18.10;94.90
1994;DHT22;998;49.906;10.908;2023-05-27T09:50:08;18.00;95.00
1994;DHT22;998;49.906;10.908;2023-05-27T09:52:38;18.10;95.70
1994;DHT22;998;49.906;10.908;2023-05-27T09:55:10;18.20;95.30
1994;DHT22;998;49.906;10.908;2023-05-27T09:57:38;18.30;95.20
1994;DHT22;998;49.906;10.908;2023-05-27T10:00:08;18.30;94.50
1994;DHT22;998;49.906;10.908;2023-05-27T10:02:40;18.30;93.90
1994;DHT22;998;49.906;10.908;2023-05-27T10:05:08;18.20;93.90
1994;DHT22;998;49.906;10.908;2023-05-27T10:07:41;18.20;92.20
1994;DHT22;998;49.906;10.908;2023-05-27T10:10:11;18.20;91.80
1994;DHT22;998;49.906;10.908;2023-05-27T10:12:41;18.40;92.60
1994;DHT22;998;49.906;10.908;2023-05-27T10:15:20;18.50;94.00
1994;DHT22;998;49.906;10.908;2023-05-27T10:17:49;18.70;94.00
1994;DHT22;998;49.906;10.908;2023-05-27T10:20:25;18.80;93.80
1994;DHT22;998;49.906;10.908;2023-05-27T10:22:53;18.80;92.40
1994;DHT22;998;49.906;10.908;2023-05-27T10:25:22;18.80;92.10
1994;DHT22;998;49.906;10.908;2023-05-27T10:27:50;18.80;92.20
1994;DHT22;998;49.906;10.908;2023-05-27T10:30:17;18.90;92.10
1994;DHT22;998;49.906;10.908;2023-05-27T10:32:48;18.90;92.10
1994;DHT22;998;49.906;10.908;2023-05-27T10:35:16;19.00;90.30
1994;DHT22;998;49.906;10.908;2023-05-27T10:37:45;18.90;89.40
1994;DHT22;998;49.906;10.908;2023-05-27T10:40:25;19.00;91.40
1994;DHT22;998;49.906;10.908;2023-05-27T10:42:59;19.10;90.90
1994;DHT22;998;49.906;10.908;2023-05-27T10:45:37;19.30;90.40
1994;DHT22;998;49.906;10.908;2023-05-27T10:48:15;19.30;85.80
1994;DHT22;998;49.906;10.908;2023-05-27T10:50:49;19.40;87.90
1994;DHT22;998;49.906;10.908;2023-05-27T10:53:18;19.40;87.70
1994;DHT22;998;49.906;10.908;2023-05-27T10:55:49;19.50;83.60
1994;DHT22;998;49.906;10.908;2023-05-27T10:58:17;19.40;81.70
1994;DHT22;998;49.906;10.908;2023-05-27T11:00:45;19.40;81.80
1994;DHT22;998;49.906;10.908;2023-05-27T11:03:19;19.40;81.10
1994;DHT22;998;49.906;10.908;2023-05-27T11:06:00;19.50;84.60
1994;DHT22;998;49.906;10.908;2023-05-27T11:08:28;19.70;84.70
1994;DHT22;998;49.906;10.908;2023-05-27T11:11:01;19.80;84.90
1994;DHT22;998;49.906;10.908;2023-05-27T11:13:32;19.90;84.20
1994;DHT22;998;49.906;10.908;2023-05-27T11:16:01;20.00;83.70
1994;DHT22;998;49.906;10.908;2023-05-27T11:18:36;20.10;83.10
1994;DHT22;998;49.906;10.908;2023-05-27T11:21:04;20.20;83.70
1994;DHT22;998;49.906;10.908;2023-05-27T11:23:36;20.20;84.00
1994;DHT22;998;49.906;10.908;2023-05-27T11:26:10;20.10;80.20
1994;DHT22;998;49.906;10.908;2023-05-27T11:28:37;20.10;80.70
1994;DHT22;998;49.906;10.908;2023-05-27T11:31:07;20.20;82.00
1994;DHT22;998;49.906;10.908;2023-05-27T11:33:34;20.40;82.50
1994;DHT22;998;49.906;10.908;2023-05-27T11:36:06;20.60;79.00
1994;DHT22;998;49.906;10.908;2023-05-27T11:38:46;20.50;80.90
1994;DHT22;998;49.906;10.908;2023-05-27T11:41:15;20.70;80.70
1994;DHT22;998;49.906;10.908;2023-05-27T11:43:50;20.90;77.50
1994;DHT22;998;49.906;10.908;2023-05-27T11:46:17;20.80;75.60
1994;DHT22;998;49.906;10.908;2023-05-27T11:48:45;20.90;76.00
1994;DHT22;998;49.906;10.908;2023-05-27T11:51:13;21.00;76.60
1994;DHT22;998;49.906;10.908;2023-05-27T11:53:43;21.10;76.90
1994;DHT22;998;49.906;10.908;2023-05-27T11:56:11;21.20;76.40
1994;DHT22;998;49.906;10.908;2023-05-27T11:58:39;21.30;76.90
1994;DHT22;998;49.906;10.908;2023-05-27T12:01:07;21.40;77.20
1994;DHT22;998;49.906;10.908;2023-05-27T12:03:34;21.50;73.60
1994;DHT22;998;49.906;10.908;2023-05-27T12:06:03;21.60;71.60
1994;DHT22;998;49.906;10.908;2023-05-27T12:08:30;21.70;71.80
1994;DHT22;998;49.906;10.908;2023-05-27T12:10:57;21.80;68.40
1994;DHT22;998;49.906;10.908;2023-05-27T12:13:25;22.10;68.30
1994;DHT22;998;49.906;10.908;2023-05-27T12:15:56;22.40;69.10
1994;DHT22;998;49.906;10.908;2023-05-27T12:18:23;22.50;67.00
1994;DHT22;998;49.906;10.908;2023-05-27T12:20:51;22.70;64.40
1994;DHT22;998;49.906;10.908;2023-05-27T12:23:19;22.80;64.10
1994;DHT22;998;49.906;10.908;2023-05-27T12:25:46;23.10;65.30
1994;DHT22;998;49.906;10.908;2023-05-27T12:28:14;23.30;63.70
1994;DHT22;998;49.906;10.908;2023-05-27T12:30:41;23.60;65.20
1994;DHT22;998;49.906;10.908;2023-05-27T12:33:10;23.90;65.00
1994;DHT22;998;49.906;10.908;2023-05-27T12:35:37;24.00;64.70
1994;DHT22;998;49.906;10.908;2023-05-27T12:38:05;24.40;63.80
1994;DHT22;998;49.906;10.908;2023-05-27T12:40:32;24.40;61.30
1994;DHT22;998;49.906;10.908;2023-05-27T12:43:00;24.50;60.10
1994;DHT22;998;49.906;10.908;2023-05-27T12:45:29;24.80;59.10
1994;DHT22;998;49.906;10.908;2023-05-27T12:47:57;24.70;56.30
1994;DHT22;998;49.906;10.908;2023-05-27T12:50:26;24.80;57.30
1994;DHT22;998;49.906;10.908;2023-05-27T12:52:53;25.00;57.40
1994;DHT22;998;49.906;10.908;2023-05-27T12:55:21;25.00;57.30
1994;DHT22;998;49.906;10.908;2023-05-27T12:57:50;25.10;58.10
1994;DHT22;998;49.906;10.908;2023-05-27T13:00:19;25.10;54.60
1994;DHT22;998;49.906;10.908;2023-05-27T13:02:47;25.00;54.30
1994;DHT22;998;49.906;10.908;2023-05-27T13:05:15;24.80;55.50
1994;DHT22;998;49.906;10.908;2023-05-27T13:07:54;24.70;53.90
1994;DHT22;998;49.906;10.908;2023-05-27T13:10:22;24.70;55.30
1994;DHT22;998;49.906;10.908;2023-05-27T13:12:49;24.60;53.50
1994;DHT22;998;49.906;10.908;2023-05-27T13:15:17;24.80;55.20
1994;DHT22;998;49.906;10.908;2023-05-27T13:17:45;25.30;55.60
1994;DHT22;998;49.906;10.908;2023-05-27T13:20:13;25.60;55.40
1994;DHT22;998;49.906;10.908;2023-05-27T13:22:42;25.70;54.50
1994;DHT22;998;49.906;10.908;2023-05-27T13:25:11;25.60;55.20
1994;DHT22;998;49.906;10.908;2023-05-27T13:27:39;25.70;56.10
1994;DHT22;998;49.906;10.908;2023-05-27T13:30:09;25.80;55.90
1994;DHT22;998;49.906;10.908;2023-05-27T13:32:36;25.80;55.60
1994;DHT22;998;49.906;10.908;2023-05-27T13:35:05;25.80;56.00
1994;DHT22;998;49.906;10.908;2023-05-27T13:37:32;25.90;55.60
1994;DHT22;998;49.906;10.908;2023-05-27T13:39:59;25.90;55.60
1994;DHT22;998;49.906;10.908;2023-05-27T13:42:28;25.80;55.80
1994;DHT22;998;49.906;10.908;2023-05-27T13:44:56;26.00;55.90
1994;DHT22;998;49.906;10.908;2023-05-27T13:47:23;26.00;56.20
1994;DHT22;998;49.906;10.908;2023-05-27T13:49:51;26.10;56.40
1994;DHT22;998;49.906;10.908;2023-05-27T13:52:18;26.10;55.00
1994;DHT22;998;49.906;10.908;2023-05-27T13:54:46;26.20;54.90
1994;DHT22;998;49.906;10.908;2023-05-27T13:57:13;26.10;55.00
1994;DHT22;998;49.906;10.908;2023-05-27T13:59:42;26.20;55.30
1994;DHT22;998;49.906;10.908;2023-05-27T14:02:10;26.30;54.90
1994;DHT22;998;49.906;10.908;2023-05-27T14:04:37;26.30;52.50
1994;DHT22;998;49.906;10.908;2023-05-27T14:07:04;26.20;54.00
1994;DHT22;998;49.906;10.908;2023-05-27T14:09:32;26.30;55.30
1994;DHT22;998;49.906;10.908;2023-05-27T14:11:59;26.30;55.20
1994;DHT22;998;49.906;10.908;2023-05-27T14:14:28;26.30;54.00
1994;DHT22;998;49.906;10.908;2023-05-27T14:16:57;25.90;51.60
1994;DHT22;998;49.906;10.908;2023-05-27T14:19:24;25.80;53.80
1994;DHT22;998;49.906;10.908;2023-05-27T14:21:51;25.80;54.10
1994;DHT22;998;49.906;10.908;2023-05-27T14:24:19;25.90;55.50
1994;DHT22;998;49.906;10.908;2023-05-27T14:26:46;26.00;55.50
1994;DHT22;998;49.906;10.908;2023-05-27T14:29:14;26.10;54.40
1994;DHT22;998;49.906;10.908;2023-05-27T14:31:41;26.10;54.70
1994;DHT22;998;49.906;10.908;2023-05-27T14:34:10;26.10;54.10
1994;DHT22;998;49.906;10.908;2023-05-27T14:36:38;26.10;53.30
1994;DHT22;998;49.906;10.908;2023-05-27T14:39:06;26.00;53.20
1994;DHT22;998;49.906;10.908;2023-05-27T14:41:33;26.10;53.60
1994;DHT22;998;49.906;10.908;2023-05-27T14:44:01;26.00;53.00
1994;DHT22;998;49.906;10.908;2023-05-27T14:46:28;26.00;52.50
1994;DHT22;998;49.906;10.908;2023-05-27T14:48:56;25.90;52.60
1994;DHT22;998;49.906;10.908;2023-05-27T14:51:26;26.00;53.80
1994;DHT22;998;49.906;10.908;2023-05-27T14:53:53;26.00;54.10
1994;DHT22;998;49.906;10.908;2023-05-27T14:56:21;26.00;55.00
1994;DHT22;998;49.906;10.908;2023-05-27T14:58:48;26.10;55.20
1994;DHT22;998;49.906;10.908;2023-05-27T15:01:16;26.10;54.70
1994;DHT22;998;49.906;10.908;2023-05-27T15:03:44;25.80;53.40
1994;DHT22;998;49.906;10.908;2023-05-27T15:06:11;25.80;53.10
1994;DHT22;998;49.906;10.908;2023-05-27T15:08:40;25.60;53.70
1994;DHT22;998;49.906;10.908;2023-05-27T15:11:08;25.60;54.40
1994;DHT22;998;49.906;10.908;2023-05-27T15:13:35;25.70;54.30
1994;DHT22;998;49.906;10.908;2023-05-27T15:16:03;25.70;54.50
1994;DHT22;998;49.906;10.908;2023-05-27T15:18:30;25.60;55.20
1994;DHT22;998;49.906;10.908;2023-05-27T15:20:57;25.70;55.70
1994;DHT22;998;49.906;10.908;2023-05-27T15:23:24;25.80;56.20
1994;DHT22;998;49.906;10.908;2023-05-27T15:25:53;25.70;55.80
1994;DHT22;998;49.906;10.908;2023-05-27T15:28:20;25.80;55.00
1994;DHT22;998;49.906;10.908;2023-05-27T15:30:48;25.80;55.20
1994;DHT22;998;49.906;10.908;2023-05-27T15:33:17;25.70;55.90
1994;DHT22;998;49.906;10.908;2023-05-27T15:35:45;25.60;56.00
1994;DHT22;998;49.906;10.908;2023-05-27T15:38:14;25.60;55.60
1994;DHT22;998;49.906;10.908;2023-05-27T15:40:42;25.60;55.80
1994;DHT22;998;49.906;10.908;2023-05-27T15:43:11;25.60;55.70
1994;DHT22;998;49.906;10.908;2023-05-27T15:45:39;25.60;54.50
1994;DHT22;998;49.906;10.908;2023-05-27T15:48:07;25.40;53.90
1994;DHT22;998;49.906;10.908;2023-05-27T15:50:36;25.20;55.00
1994;DHT22;998;49.906;10.908;2023-05-27T15:53:04;25.40;56.20
1994;DHT22;998;49.906;10.908;2023-05-27T15:55:32;25.50;56.40
1994;DHT22;998;49.906;10.908;2023-05-27T15:57:59;25.50;55.60
1994;DHT22;998;49.906;10.908;2023-05-27T16:00:28;25.60;56.10
1994;DHT22;998;49.906;10.908;2023-05-27T16:02:55;25.60;55.70
1994;DHT22;998;49.906;10.908;2023-05-27T16:05:23;25.60;55.70
1994;DHT22;998;49.906;10.908;2023-05-27T16:07:50;25.60;56.30
1994;DHT22;998;49.906;10.908;2023-05-27T16:10:19;25.60;56.40